Flight Track Log - Related Links

Times and Time Zones

All times are in EST time to prevent confusion due to time zone crossing. See the TAM3840 flight status page for this flight to view local times or setup timezone preferences in your user account.


Time Position Orientation Groundspeed Altitude Reporting Facility
EST Latitude Longitude Course Direction KTS MPH feet Rate Location/Type
Wed 10:08:00 AM -4.4046 -40.6207 73° East  Level Estimated
Wed 10:09:00 AM -4.3717 -40.5107 73° East  Level Estimated
Wed 10:10:00 AM -4.3387 -40.4007 73° East  Level Estimated
Wed 10:11:00 AM -4.3057 -40.2906 73° East  Level Estimated
Wed 10:12:00 AM -4.2727 -40.1806 73° East  Level Estimated
Wed 10:13:00 AM -4.2397 -40.0706 73° East  Level Estimated
Wed 10:14:00 AM -4.2067 -39.9607 73° East  Level Estimated
Wed 10:15:00 AM -4.1736 -39.8507 73° East  Level Estimated
Wed 10:16:00 AM -4.1406 -39.7407 73° East  Level Estimated
Wed 10:17:00 AM -4.1075 -39.6308 73° East  Level Estimated
Wed 10:18:00 AM -4.0744 -39.5208 73° East  Level Estimated
Wed 10:19:00 AM -4.0413 -39.4109 73° East  Level Estimated
Wed 10:20:00 AM -4.0082 -39.3009 73° East  Level Estimated
Wed 10:21:00 AM -3.9751 -39.1910 73° East  Level Estimated
Wed 10:22:00 AM -3.9420 -39.0811 73° East  Level Estimated
Wed 10:23:00 AM -3.9088 -38.9712 73° East  Level Estimated
Wed 10:24:00 AM -3.8756 -38.8613 73° East  Level Estimated
Wed 10:25:00 AM -3.8424 -38.7514 73° East  Level Estimated
Wed 10:26:00 AM -3.8092 -38.6415 73° East  Level Estimated
Wed 10:27:00 AM -3.7763 -38.5326 73° East  Level Estimated
Wed 10:28:00 AM -3.7763 -38.5326 127° Southeast  Level Estimated
Wed 10:29:00 AM -3.7763 -38.5326 127° Southeast  Level Estimated
Wed 10:30:00 AM -3.7763 -38.5326 127° Southeast  Level Estimated
Wed 10:31:00 AM -3.7763 -38.5326 127° Southeast  Level Estimated
Wed 10:32:00 AM -3.7763 -38.5326 127° Southeast  Level Estimated
Wed 10:33:00 AM -3.7763 -38.5326 127° Southeast  Level Estimated
Wed 10:34:00 AM -3.7763 -38.5326 127° Southeast  Level Estimated
Wed 10:35:00 AM -3.7763 -38.5326 127° Southeast  Level Estimated
Wed 10:36:00 AM -3.7763 -38.5326 127° Southeast  Level Estimated
Wed 10:37:00 AM -3.7763 -38.5326 127° Southeast  Level Estimated
Wed 10:38:00 AM -3.7763 -38.5326 127° Southeast  Level Estimated
Wed 10:39:00 AM -3.7763 -38.5326 127° Southeast  Level Estimated
Wed 10:40:00 AM -3.7763 -38.5326 127° Southeast  Level Estimated
Wed 10:41:00 AM -3.7763 -38.5326 127° Southeast  Level Estimated

Login

Don't have an account? Register now (free) for customized features, flight alerts, and more!